sensor_id;sensor_type;location;lat;lon;timestamp;pressure;altitude;pressure_sealevel;temperature;humidity
50356;BME280;36264;51.296;-0.602;2023-04-25T00:01:17;101247.31;;;13.13;78.91
50356;BME280;36264;51.296;-0.602;2023-04-25T00:03:42;101252.63;;;13.10;78.58
50356;BME280;36264;51.296;-0.602;2023-04-25T00:06:08;101256.81;;;13.15;78.56
50356;BME280;36264;51.296;-0.602;2023-04-25T00:08:33;101269.19;;;13.09;78.42
50356;BME280;36264;51.296;-0.602;2023-04-25T00:10:59;101273.69;;;13.03;78.06
50356;BME280;36264;51.296;-0.602;2023-04-25T00:13:25;101280.38;;;13.12;78.09
50356;BME280;36264;51.296;-0.602;2023-04-25T00:15:51;101278.56;;;13.14;78.16
50356;BME280;36264;51.296;-0.602;2023-04-25T00:18:18;101283.22;;;13.04;77.74
50356;BME280;36264;51.296;-0.602;2023-04-25T00:20:44;101270.25;;;13.03;77.46
50356;BME280;36264;51.296;-0.602;2023-04-25T00:23:12;101266.50;;;13.12;76.72
50356;BME280;36264;51.296;-0.602;2023-04-25T00:25:45;101258.91;;;13.04;76.82
50356;BME280;36264;51.296;-0.602;2023-04-25T00:28:12;101260.94;;;12.96;76.69
50356;BME280;36264;51.296;-0.602;2023-04-25T00:30:38;101264.22;;;13.01;76.19
50356;BME280;36264;51.296;-0.602;2023-04-25T00:33:03;101269.19;;;12.82;76.15
50356;BME280;36264;51.296;-0.602;2023-04-25T00:35:29;101275.38;;;12.78;76.12
50356;BME280;36264;51.296;-0.602;2023-04-25T00:37:54;101276.41;;;12.74;75.86
50356;BME280;36264;51.296;-0.602;2023-04-25T00:40:20;101272.94;;;12.73;75.35
50356;BME280;36264;51.296;-0.602;2023-04-25T00:42:46;101271.66;;;12.86;75.29
50356;BME280;36264;51.296;-0.602;2023-04-25T00:45:13;101270.94;;;12.81;75.06
50356;BME280;36264;51.296;-0.602;2023-04-25T00:47:42;101283.91;;;12.56;75.37
50356;BME280;36264;51.296;-0.602;2023-04-25T00:50:08;101287.91;;;12.66;75.08
50356;BME280;36264;51.296;-0.602;2023-04-25T00:52:34;101284.13;;;12.48;74.99
50356;BME280;36264;51.296;-0.602;2023-04-25T00:55:00;101283.41;;;12.43;74.96
50356;BME280;36264;51.296;-0.602;2023-04-25T00:57:26;101284.13;;;12.48;74.75
50356;BME280;36264;51.296;-0.602;2023-04-25T00:59:52;101290.94;;;12.53;74.45
50356;BME280;36264;51.296;-0.602;2023-04-25T01:02:19;101279.53;;;12.57;74.26
50356;BME280;36264;51.296;-0.602;2023-04-25T01:04:45;101291.34;;;12.40;73.99
50356;BME280;36264;51.296;-0.602;2023-04-25T01:07:11;101291.41;;;12.37;73.96
50356;BME280;36264;51.296;-0.602;2023-04-25T01:09:36;101295.88;;;12.32;74.02
50356;BME280;36264;51.296;-0.602;2023-04-25T01:12:02;101292.41;;;12.33;73.37
50356;BME280;36264;51.296;-0.602;2023-04-25T01:14:28;101293.56;;;12.23;73.44
50356;BME280;36264;51.296;-0.602;2023-04-25T01:16:54;101295.34;;;12.21;73.14
50356;BME280;36264;51.296;-0.602;2023-04-25T01:19:19;101294.56;;;12.19;72.95
50356;BME280;36264;51.296;-0.602;2023-04-25T01:21:45;101296.09;;;12.24;72.77
50356;BME280;36264;51.296;-0.602;2023-04-25T01:24:11;101291.72;;;12.26;72.31
50356;BME280;36264;51.296;-0.602;2023-04-25T01:26:37;101299.38;;;12.32;72.01
50356;BME280;36264;51.296;-0.602;2023-04-25T01:29:07;101303.34;;;12.44;72.08
50356;BME280;36264;51.296;-0.602;2023-04-25T01:31:34;101301.09;;;12.32;72.02
50356;BME280;36264;51.296;-0.602;2023-04-25T01:34:00;101307.78;;;12.11;71.85
50356;BME280;36264;51.296;-0.602;2023-04-25T01:36:25;101312.50;;;11.98;71.89
50356;BME280;36264;51.296;-0.602;2023-04-25T01:38:52;101320.31;;;11.98;72.13
50356;BME280;36264;51.296;-0.602;2023-04-25T01:41:17;101320.34;;;11.96;71.72
50356;BME280;36264;51.296;-0.602;2023-04-25T01:43:44;101322.75;;;12.04;71.70
50356;BME280;36264;51.296;-0.602;2023-04-25T01:46:10;101319.19;;;12.07;71.47
50356;BME280;36264;51.296;-0.602;2023-04-25T01:48:36;101317.19;;;11.84;71.34
50356;BME280;36264;51.296;-0.602;2023-04-25T01:51:01;101316.47;;;11.78;71.28
50356;BME280;36264;51.296;-0.602;2023-04-25T01:53:27;101313.91;;;11.77;71.22
50356;BME280;36264;51.296;-0.602;2023-04-25T01:55:52;101323.59;;;11.70;70.92
50356;BME280;36264;51.296;-0.602;2023-04-25T01:58:18;101326.28;;;11.67;70.88
50356;BME280;36264;51.296;-0.602;2023-04-25T02:00:43;101324.63;;;11.65;70.98
50356;BME280;36264;51.296;-0.602;2023-04-25T02:03:09;101322.97;;;11.62;71.18
50356;BME280;36264;51.296;-0.602;2023-04-25T02:05:36;101332.25;;;11.72;71.03
50356;BME280;36264;51.296;-0.602;2023-04-25T02:08:02;101325.47;;;11.65;70.69
50356;BME280;36264;51.296;-0.602;2023-04-25T02:10:28;101329.22;;;11.55;70.44
50356;BME280;36264;51.296;-0.602;2023-04-25T02:12:53;101325.78;;;11.53;70.45
50356;BME280;36264;51.296;-0.602;2023-04-25T02:15:19;101320.47;;;11.57;70.23
50356;BME280;36264;51.296;-0.602;2023-04-25T02:17:44;101325.88;;;11.50;70.12
50356;BME280;36264;51.296;-0.602;2023-04-25T02:20:10;101331.84;;;11.55;70.21
50356;BME280;36264;51.296;-0.602;2023-04-25T02:22:36;101331.91;;;11.52;70.14
50356;BME280;36264;51.296;-0.602;2023-04-25T02:25:02;101344.84;;;11.55;69.88
50356;BME280;36264;51.296;-0.602;2023-04-25T02:27:30;101343.03;;;11.57;69.71
50356;BME280;36264;51.296;-0.602;2023-04-25T02:29:56;101337.97;;;11.52;69.64
50356;BME280;36264;51.296;-0.602;2023-04-25T02:32:21;101340.66;;;11.48;69.33
50356;BME280;36264;51.296;-0.602;2023-04-25T02:34:46;101341.63;;;11.45;69.32
50356;BME280;36264;51.296;-0.602;2023-04-25T02:37:13;101346.88;;;11.44;69.31
50356;BME280;36264;51.296;-0.602;2023-04-25T02:39:38;101343.56;;;11.35;69.28
50356;BME280;36264;51.296;-0.602;2023-04-25T02:42:04;101347.97;;;11.33;69.13
50356;BME280;36264;51.296;-0.602;2023-04-25T02:44:29;101333.25;;;11.32;68.99
50356;BME280;36264;51.296;-0.602;2023-04-25T02:46:56;101338.59;;;11.28;68.66
50356;BME280;36264;51.296;-0.602;2023-04-25T02:49:21;101342.91;;;11.27;68.53
50356;BME280;36264;51.296;-0.602;2023-04-25T02:51:47;101347.31;;;11.25;68.49
50356;BME280;36264;51.296;-0.602;2023-04-25T02:54:12;101341.28;;;11.23;68.44
50356;BME280;36264;51.296;-0.602;2023-04-25T02:56:37;101349.97;;;11.22;68.44
50356;BME280;36264;51.296;-0.602;2023-04-25T02:59:03;101350.91;;;11.19;68.17
50356;BME280;36264;51.296;-0.602;2023-04-25T03:01:28;101351.84;;;11.17;68.05
50356;BME280;36264;51.296;-0.602;2023-04-25T03:03:54;101351.09;;;11.10;68.16
50356;BME280;36264;51.296;-0.602;2023-04-25T03:06:19;101350.34;;;11.06;68.03
50356;BME280;36264;51.296;-0.602;2023-04-25T03:08:45;101351.06;;;11.12;67.61
50356;BME280;36264;51.296;-0.602;2023-04-25T03:11:10;101354.72;;;11.04;67.61
50356;BME280;36264;51.296;-0.602;2023-04-25T03:13:35;101347.78;;;11.05;67.10
50356;BME280;36264;51.296;-0.602;2023-04-25T03:16:01;101347.06;;;10.98;67.04
50356;BME280;36264;51.296;-0.602;2023-04-25T03:18:26;101350.53;;;10.97;67.06
50356;BME280;36264;51.296;-0.602;2023-04-25T03:20:51;101359.25;;;10.96;67.16
50356;BME280;36264;51.296;-0.602;2023-04-25T03:23:17;101351.53;;;10.93;67.17
50356;BME280;36264;51.296;-0.602;2023-04-25T03:25:42;101361.06;;;10.91;67.08
50356;BME280;36264;51.296;-0.602;2023-04-25T03:28:08;101362.91;;;10.87;66.72
50356;BME280;36264;51.296;-0.602;2023-04-25T03:30:33;101363.84;;;10.85;66.81
50356;BME280;36264;51.296;-0.602;2023-04-25T03:32:58;101361.25;;;10.85;66.61
50356;BME280;36264;51.296;-0.602;2023-04-25T03:35:24;101359.66;;;10.78;66.33
50356;BME280;36264;51.296;-0.602;2023-04-25T03:37:50;101365.78;;;10.74;66.63
50356;BME280;36264;51.296;-0.602;2023-04-25T03:40:15;101366.69;;;10.73;66.64
50356;BME280;36264;51.296;-0.602;2023-04-25T03:42:40;101377.97;;;10.72;66.65
50356;BME280;36264;51.296;-0.602;2023-04-25T03:45:07;101377.09;;;10.73;66.40
50356;BME280;36264;51.296;-0.602;2023-04-25T03:47:32;101379.81;;;10.66;66.39
50356;BME280;36264;51.296;-0.602;2023-04-25T03:49:57;101372.03;;;10.66;66.07
50356;BME280;36264;51.296;-0.602;2023-04-25T03:52:23;101372.88;;;10.67;66.10
50356;BME280;36264;51.296;-0.602;2023-04-25T03:54:48;101383.34;;;10.62;66.14
50356;BME280;36264;51.296;-0.602;2023-04-25T03:57:14;101385.91;;;10.64;65.93
50356;BME280;36264;51.296;-0.602;2023-04-25T03:59:39;101387.47;;;10.29;66.91
50356;BME280;36264;51.296;-0.602;2023-04-25T04:02:04;101396.22;;;10.25;67.30
50356;BME280;36264;51.296;-0.602;2023-04-25T04:04:30;101395.41;;;10.20;67.24
50356;BME280;36264;51.296;-0.602;2023-04-25T04:06:55;101397.16;;;10.21;67.13
50356;BME280;36264;51.296;-0.602;2023-04-25T04:09:21;101393.78;;;10.15;66.90
50356;BME280;36264;51.296;-0.602;2023-04-25T04:11:47;101400.72;;;10.15;66.98
50356;BME280;36264;51.296;-0.602;2023-04-25T04:14:12;101408.56;;;10.12;67.16
50356;BME280;36264;51.296;-0.602;2023-04-25T04:16:37;101415.50;;;10.10;66.99
50356;BME280;36264;51.296;-0.602;2023-04-25T04:19:03;101425.94;;;10.07;66.94
50356;BME280;36264;51.296;-0.602;2023-04-25T04:21:28;101428.56;;;10.05;66.85
50356;BME280;36264;51.296;-0.602;2023-04-25T04:23:54;101426.91;;;10.03;66.86
50356;BME280;36264;51.296;-0.602;2023-04-25T04:26:20;101437.25;;;10.04;67.21
50356;BME280;36264;51.296;-0.602;2023-04-25T04:28:48;101441.53;;;10.05;66.99
50356;BME280;36264;51.296;-0.602;2023-04-25T04:31:16;101442.56;;;9.98;66.61
50356;BME280;36264;51.296;-0.602;2023-04-25T04:33:43;101445.22;;;9.93;66.64
50356;BME280;36264;51.296;-0.602;2023-04-25T04:36:09;101447.00;;;9.91;66.70
50356;BME280;36264;51.296;-0.602;2023-04-25T04:38:35;101444.44;;;9.90;66.55
50356;BME280;36264;51.296;-0.602;2023-04-25T04:41:01;101438.47;;;9.83;66.50
50356;BME280;36264;51.296;-0.602;2023-04-25T04:43:27;101440.19;;;9.84;66.37
50356;BME280;36264;51.296;-0.602;2023-04-25T04:45:53;101451.41;;;9.85;66.60
50356;BME280;36264;51.296;-0.602;2023-04-25T04:48:21;101454.06;;;9.82;66.74
50356;BME280;36264;51.296;-0.602;2023-04-25T04:50:47;101450.59;;;9.83;66.68
50356;BME280;36264;51.296;-0.602;2023-04-25T04:53:12;101449.75;;;9.82;66.68
50356;BME280;36264;51.296;-0.602;2023-04-25T04:55:38;101458.41;;;9.81;66.51
50356;BME280;36264;51.296;-0.602;2023-04-25T04:58:03;101459.28;;;9.80;66.43
50356;BME280;36264;51.296;-0.602;2023-04-25T05:00:29;101462.75;;;9.81;66.40
50356;BME280;36264;51.296;-0.602;2023-04-25T05:02:55;101472.16;;;9.85;66.38
50356;BME280;36264;51.296;-0.602;2023-04-25T05:05:21;101470.56;;;9.77;66.22
50356;BME280;36264;51.296;-0.602;2023-04-25T05:07:46;101477.63;;;9.69;66.12
50356;BME280;36264;51.296;-0.602;2023-04-25T05:10:11;101484.56;;;9.66;65.92
50356;BME280;36264;51.296;-0.602;2023-04-25T05:12:37;101503.66;;;9.63;66.28
50356;BME280;36264;51.296;-0.602;2023-04-25T05:15:02;101502.66;;;9.70;66.28
50356;BME280;36264;51.296;-0.602;2023-04-25T05:17:27;101509.66;;;9.67;66.46
50356;BME280;36264;51.296;-0.602;2023-04-25T05:19:53;101510.53;;;9.64;66.34
50356;BME280;36264;51.296;-0.602;2023-04-25T05:22:18;101510.59;;;9.61;66.16
50356;BME280;36264;51.296;-0.602;2023-04-25T05:24:44;101520.09;;;9.60;66.23
50356;BME280;36264;51.296;-0.602;2023-04-25T05:27:09;101518.34;;;9.63;66.32
50356;BME280;36264;51.296;-0.602;2023-04-25T05:29:34;101520.09;;;9.62;66.12
50356;BME280;36264;51.296;-0.602;2023-04-25T05:32:00;101524.44;;;9.60;66.17
50356;BME280;36264;51.296;-0.602;2023-04-25T05:34:25;101520.09;;;9.60;66.24
50356;BME280;36264;51.296;-0.602;2023-04-25T05:36:51;101520.06;;;9.64;66.29
50356;BME280;36264;51.296;-0.602;2023-04-25T05:39:16;101525.88;;;9.79;66.05
50356;BME280;36264;51.296;-0.602;2023-04-25T05:41:42;101515.31;;;9.92;65.21
50356;BME280;36264;51.296;-0.602;2023-04-25T05:44:08;101524.38;;;9.65;66.05
50356;BME280;36264;51.296;-0.602;2023-04-25T05:46:33;101524.31;;;9.69;66.67
50356;BME280;36264;51.296;-0.602;2023-04-25T05:48:59;101532.13;;;9.68;66.70
50356;BME280;36264;51.296;-0.602;2023-04-25T05:51:24;101542.44;;;9.71;66.51
50356;BME280;36264;51.296;-0.602;2023-04-25T05:53:49;101539.88;;;9.71;66.93
50356;BME280;36264;51.296;-0.602;2023-04-25T05:56:15;101542.38;;;9.77;66.90
50356;BME280;36264;51.296;-0.602;2023-04-25T05:58:40;101551.75;;;9.84;66.77
50356;BME280;36264;51.296;-0.602;2023-04-25T06:01:06;101550.88;;;9.87;66.64
50356;BME280;36264;51.296;-0.602;2023-04-25T06:03:31;101550.84;;;9.88;66.39
50356;BME280;36264;51.296;-0.602;2023-04-25T06:05:56;101546.47;;;9.90;66.33
50356;BME280;36264;51.296;-0.602;2023-04-25T06:08:22;101538.66;;;9.93;66.54
50356;BME280;36264;51.296;-0.602;2023-04-25T06:10:47;101535.94;;;10.01;66.68
50356;BME280;36264;51.296;-0.602;2023-04-25T06:13:13;101534.91;;;10.10;66.56
50356;BME280;36264;51.296;-0.602;2023-04-25T06:15:38;101545.38;;;10.04;66.58
50356;BME280;36264;51.296;-0.602;2023-04-25T06:18:03;101544.72;;;9.91;66.98
50356;BME280;36264;51.296;-0.602;2023-04-25T06:20:29;101553.25;;;9.99;67.42
50356;BME280;36264;51.296;-0.602;2023-04-25T06:22:54;101547.97;;;10.05;67.43
50356;BME280;36264;51.296;-0.602;2023-04-25T06:25:20;101549.63;;;10.09;67.59
50356;BME280;36264;51.296;-0.602;2023-04-25T06:27:46;101550.41;;;10.14;67.70
50356;BME280;36264;51.296;-0.602;2023-04-25T06:30:11;101552.91;;;10.21;67.40
50356;BME280;36264;51.296;-0.602;2023-04-25T06:32:37;101561.47;;;10.26;67.71
50356;BME280;36264;51.296;-0.602;2023-04-25T06:35:03;101560.56;;;10.28;67.73
50356;BME280;36264;51.296;-0.602;2023-04-25T06:37:29;101564.00;;;10.30;67.59
50356;BME280;36264;51.296;-0.602;2023-04-25T06:39:55;101563.94;;;10.37;67.79
50356;BME280;36264;51.296;-0.602;2023-04-25T06:42:20;101550.03;;;10.41;67.90
50356;BME280;36264;51.296;-0.602;2023-04-25T06:44:46;101552.53;;;10.45;68.03
50356;BME280;36264;51.296;-0.602;2023-04-25T06:47:11;101554.28;;;10.43;68.04
50356;BME280;36264;51.296;-0.602;2023-04-25T06:49:36;101545.53;;;10.49;68.27
50356;BME280;36264;51.296;-0.602;2023-04-25T06:52:02;101549.66;;;10.59;68.20
50356;BME280;36264;51.296;-0.602;2023-04-25T06:54:28;101556.59;;;10.60;68.38
50356;BME280;36264;51.296;-0.602;2023-04-25T06:56:55;101558.22;;;10.67;68.42
50356;BME280;36264;51.296;-0.602;2023-04-25T06:59:21;101560.06;;;10.59;68.17
50356;BME280;36264;51.296;-0.602;2023-04-25T07:01:46;101572.28;;;10.54;68.57
50356;BME280;36264;51.296;-0.602;2023-04-25T07:04:11;101575.03;;;10.45;68.21
50356;BME280;36264;51.296;-0.602;2023-04-25T07:06:37;101582.66;;;10.54;69.03
50356;BME280;36264;51.296;-0.602;2023-04-25T07:09:08;101581.81;;;10.54;68.52
50356;BME280;36264;51.296;-0.602;2023-04-25T07:11:34;101586.88;;;10.63;68.81
50356;BME280;36264;51.296;-0.602;2023-04-25T07:13:59;101581.56;;;10.69;68.84
50356;BME280;36264;51.296;-0.602;2023-04-25T07:16:25;101590.09;;;10.76;68.68
50356;BME280;36264;51.296;-0.602;2023-04-25T07:18:50;101588.28;;;10.79;68.67
50356;BME280;36264;51.296;-0.602;2023-04-25T07:21:15;101592.38;;;10.91;68.89
50356;BME280;36264;51.296;-0.602;2023-04-25T07:23:41;101587.94;;;10.99;68.10
50356;BME280;36264;51.296;-0.602;2023-04-25T07:26:06;101589.53;;;11.05;67.94
50356;BME280;36264;51.296;-0.602;2023-04-25T07:28:32;101592.81;;;11.15;68.20
50356;BME280;36264;51.296;-0.602;2023-04-25T07:30:57;101594.41;;;11.22;68.20
50356;BME280;36264;51.296;-0.602;2023-04-25T07:33:23;101589.06;;;11.30;68.35
50356;BME280;36264;51.296;-0.602;2023-04-25T07:35:48;101593.34;;;11.31;67.70
50356;BME280;36264;51.296;-0.602;2023-04-25T07:38:14;101595.13;;;11.29;67.43
50356;BME280;36264;51.296;-0.602;2023-04-25T07:40:39;101595.22;;;11.24;67.67
50356;BME280;36264;51.296;-0.602;2023-04-25T07:43:05;101594.22;;;11.31;67.80
50356;BME280;36264;51.296;-0.602;2023-04-25T07:45:30;101601.94;;;11.36;67.53
50356;BME280;36264;51.296;-0.602;2023-04-25T07:47:56;101598.47;;;11.35;67.53
50356;BME280;36264;51.296;-0.602;2023-04-25T07:50:21;101594.84;;;11.42;67.58
50356;BME280;36264;51.296;-0.602;2023-04-25T07:52:47;101595.50;;;11.52;67.79
50356;BME280;36264;51.296;-0.602;2023-04-25T07:55:12;101605.78;;;11.58;67.32
50356;BME280;36264;51.296;-0.602;2023-04-25T07:57:37;101607.59;;;11.55;67.28
50356;BME280;36264;51.296;-0.602;2023-04-25T08:00:04;101619.84;;;11.50;66.05
50356;BME280;36264;51.296;-0.602;2023-04-25T08:02:30;101612.88;;;11.52;67.25
50356;BME280;36264;51.296;-0.602;2023-04-25T08:04:55;101604.72;;;11.67;67.53
50356;BME280;36264;51.296;-0.602;2023-04-25T08:07:21;101610.06;;;12.02;65.54
50356;BME280;36264;51.296;-0.602;2023-04-25T08:09:46;101611.44;;;12.18;65.14
50356;BME280;36264;51.296;-0.602;2023-04-25T08:12:11;101623.25;;;12.31;65.12
50356;BME280;36264;51.296;-0.602;2023-04-25T08:14:37;101623.25;;;12.31;64.78
50356;BME280;36264;51.296;-0.602;2023-04-25T08:17:04;101625.75;;;12.36;65.30
50356;BME280;36264;51.296;-0.602;2023-04-25T08:19:30;101621.34;;;12.38;64.86
50356;BME280;36264;51.296;-0.602;2023-04-25T08:21:56;101626.50;;;12.41;64.43
50356;BME280;36264;51.296;-0.602;2023-04-25T08:24:22;101625.53;;;12.45;64.44
50356;BME280;36264;51.296;-0.602;2023-04-25T08:26:47;101623.81;;;12.44;64.81
50356;BME280;36264;51.296;-0.602;2023-04-25T08:29:13;101621.13;;;12.47;63.50
50356;BME280;36264;51.296;-0.602;2023-04-25T08:31:38;101619.28;;;12.51;63.86
50356;BME280;36264;51.296;-0.602;2023-04-25T08:34:04;101611.34;;;12.56;63.48
50356;BME280;36264;51.296;-0.602;2023-04-25T08:36:29;101612.06;;;12.62;63.71
50356;BME280;36264;51.296;-0.602;2023-04-25T08:38:55;101615.59;;;12.60;64.07
50356;BME280;36264;51.296;-0.602;2023-04-25T08:41:20;101614.38;;;12.73;63.83
50356;BME280;36264;51.296;-0.602;2023-04-25T08:43:48;101623.13;;;12.72;63.18
50356;BME280;36264;51.296;-0.602;2023-04-25T08:46:19;101611.75;;;12.75;62.98
50356;BME280;36264;51.296;-0.602;2023-04-25T08:48:45;101624.66;;;12.79;58.84
50356;BME280;36264;51.296;-0.602;2023-04-25T08:51:17;101621.97;;;12.82;61.94
50356;BME280;36264;51.296;-0.602;2023-04-25T08:53:49;101613.16;;;12.88;62.47
50356;BME280;36264;51.296;-0.602;2023-04-25T08:56:16;101617.34;;;12.92;62.70
50356;BME280;36264;51.296;-0.602;2023-04-25T08:58:43;101612.75;;;13.02;62.69
50356;BME280;36264;51.296;-0.602;2023-04-25T09:01:11;101620.56;;;13.02;62.44
50356;BME280;36264;51.296;-0.602;2023-04-25T09:03:36;101615.50;;;12.97;61.21
50356;BME280;36264;51.296;-0.602;2023-04-25T09:06:02;101619.75;;;13.00;60.94
50356;BME280;36264;51.296;-0.602;2023-04-25T09:08:28;101614.59;;;12.98;61.34
50356;BME280;36264;51.296;-0.602;2023-04-25T09:10:53;101617.06;;;13.03;61.39
50356;BME280;36264;51.296;-0.602;2023-04-25T09:13:27;101609.56;;;13.23;62.04
50356;BME280;36264;51.296;-0.602;2023-04-25T09:15:54;101617.50;;;13.19;61.25
50356;BME280;36264;51.296;-0.602;2023-04-25T09:18:26;101612.03;;;13.28;61.69
50356;BME280;36264;51.296;-0.602;2023-04-25T09:23:30;101614.59;;;13.30;60.14
50356;BME280;36264;51.296;-0.602;2023-04-25T09:26:03;101618.78;;;13.35;60.31
50356;BME280;36264;51.296;-0.602;2023-04-25T09:28:28;101614.41;;;13.37;61.02
50356;BME280;36264;51.296;-0.602;2023-04-25T09:30:57;101613.16;;;13.51;60.47
50356;BME280;36264;51.296;-0.602;2023-04-25T09:33:32;101618.81;;;13.65;60.79
50356;BME280;36264;51.296;-0.602;2023-04-25T09:36:09;101624.06;;;13.64;60.48
50356;BME280;36264;51.296;-0.602;2023-04-25T09:38:44;101626.72;;;13.62;56.63
50356;BME280;36264;51.296;-0.602;2023-04-25T09:41:10;101617.16;;;13.63;59.51
50356;BME280;36264;51.296;-0.602;2023-04-25T09:43:36;101624.72;;;13.72;59.51
50356;BME280;36264;51.296;-0.602;2023-04-25T09:46:02;101624.66;;;13.73;59.39
50356;BME280;36264;51.296;-0.602;2023-04-25T09:48:28;101630.53;;;13.82;59.63
50356;BME280;36264;51.296;-0.602;2023-04-25T09:51:04;101634.69;;;13.87;57.75
50356;BME280;36264;51.296;-0.602;2023-04-25T09:53:31;101636.72;;;13.77;58.75
50356;BME280;36264;51.296;-0.602;2023-04-25T09:55:59;101637.09;;;13.93;58.31
50356;BME280;36264;51.296;-0.602;2023-04-25T09:58:25;101628.28;;;13.98;59.35
50356;BME280;36264;51.296;-0.602;2023-04-25T10:00:59;101633.41;;;14.01;58.49
50356;BME280;36264;51.296;-0.602;2023-04-25T10:03:25;101630.53;;;13.82;58.47
50356;BME280;36264;51.296;-0.602;2023-04-25T10:05:52;101633.84;;;13.87;58.70
50356;BME280;36264;51.296;-0.602;2023-04-25T10:08:19;101631.00;;;13.94;58.43
50356;BME280;36264;51.296;-0.602;2023-04-25T10:10:46;101628.66;;;13.85;57.65
50356;BME280;36264;51.296;-0.602;2023-04-25T10:13:13;101617.59;;;13.77;57.77
50356;BME280;36264;51.296;-0.602;2023-04-25T10:15:40;101619.94;;;13.86;57.73
50356;BME280;36264;51.296;-0.602;2023-04-25T10:18:06;101618.50;;;14.04;58.86
50356;BME280;36264;51.296;-0.602;2023-04-25T10:20:32;101607.00;;;14.10;57.55
50356;BME280;36264;51.296;-0.602;2023-04-25T10:23:06;101614.88;;;14.35;57.26
50356;BME280;36264;51.296;-0.602;2023-04-25T10:25:33;101620.97;;;14.36;57.18
50356;BME280;36264;51.296;-0.602;2023-04-25T10:28:03;101614.47;;;14.47;56.92
50356;BME280;36264;51.296;-0.602;2023-04-25T10:30:29;101612.75;;;14.48;57.03
50356;BME280;36264;51.296;-0.602;2023-04-25T10:32:55;101612.50;;;14.54;56.67
50356;BME280;36264;51.296;-0.602;2023-04-25T10:35:25;101607.59;;;14.72;57.01
50356;BME280;36264;51.296;-0.602;2023-04-25T10:38:10;101609.63;;;14.89;53.09
50356;BME280;36264;51.296;-0.602;2023-04-25T10:40:36;101601.72;;;14.90;55.41
50356;BME280;36264;51.296;-0.602;2023-04-25T10:43:36;101606.56;;;15.01;52.93
50356;BME280;36264;51.296;-0.602;2023-04-25T10:46:18;101608.91;;;15.09;53.76
50356;BME280;36264;51.296;-0.602;2023-04-25T10:48:52;101612.88;;;15.19;54.84
50356;BME280;36264;51.296;-0.602;2023-04-25T10:51:25;101603.97;;;15.25;55.67
50356;BME280;36264;51.296;-0.602;2023-04-25T10:56:21;101597.88;;;15.24;54.32
50356;BME280;36264;51.296;-0.602;2023-04-25T10:58:47;101607.00;;;15.37;55.35
50356;BME280;36264;51.296;-0.602;2023-04-25T11:01:15;101609.59;;;15.37;54.98
50356;BME280;36264;51.296;-0.602;2023-04-25T11:03:41;101614.59;;;15.20;54.14
50356;BME280;36264;51.296;-0.602;2023-04-25T11:06:29;101614.56;;;15.21;53.10
50356;BME280;36264;51.296;-0.602;2023-04-25T11:09:00;101614.16;;;15.09;53.40
50356;BME280;36264;51.296;-0.602;2023-04-25T11:11:26;101604.13;;;14.96;52.72
50356;BME280;36264;51.296;-0.602;2023-04-25T11:13:52;101605.72;;;15.00;52.95
50356;BME280;36264;51.296;-0.602;2023-04-25T11:16:17;101599.03;;;15.17;53.47
50356;BME280;36264;51.296;-0.602;2023-04-25T11:18:43;101602.66;;;15.36;53.58
50356;BME280;36264;51.296;-0.602;2023-04-25T11:21:09;101598.13;;;15.42;53.17
50356;BME280;36264;51.296;-0.602;2023-04-25T11:23:35;101602.41;;;15.43;53.14
50356;BME280;36264;51.296;-0.602;2023-04-25T11:26:00;101602.59;;;15.38;53.09
50356;BME280;36264;51.296;-0.602;2023-04-25T11:28:26;101604.47;;;15.34;51.19
50356;BME280;36264;51.296;-0.602;2023-04-25T11:30:52;101604.59;;;15.31;52.13
50356;BME280;36264;51.296;-0.602;2023-04-25T11:33:22;101598.97;;;15.42;51.64
50356;BME280;36264;51.296;-0.602;2023-04-25T11:35:48;101605.16;;;15.39;51.06
50356;BME280;36264;51.296;-0.602;2023-04-25T11:38:13;101609.50;;;15.40;51.33
50356;BME280;36264;51.296;-0.602;2023-04-25T11:40:38;101612.06;;;15.42;51.67
50356;BME280;36264;51.296;-0.602;2023-04-25T11:43:04;101609.31;;;15.45;51.08
50356;BME280;36264;51.296;-0.602;2023-04-25T11:45:29;101616.63;;;15.37;50.98
50356;BME280;36264;51.296;-0.602;2023-04-25T11:47:56;101608.81;;;15.35;51.09
50356;BME280;36264;51.296;-0.602;2023-04-25T11:50:21;101619.06;;;15.42;51.35
50356;BME280;36264;51.296;-0.602;2023-04-25T11:52:47;101613.28;;;15.55;51.50
50356;BME280;36264;51.296;-0.602;2023-04-25T11:55:15;101614.53;;;15.69;51.53
50356;BME280;36264;51.296;-0.602;2023-04-25T11:57:42;101615.31;;;15.71;50.55
50356;BME280;36264;51.296;-0.602;2023-04-25T12:00:11;101608.59;;;15.87;50.26
50356;BME280;36264;51.296;-0.602;2023-04-25T12:02:42;101603.91;;;15.96;48.52
50356;BME280;36264;51.296;-0.602;2023-04-25T12:05:08;101610.38;;;16.09;49.71
50356;BME280;36264;51.296;-0.602;2023-04-25T12:07:34;101614.25;;;16.21;48.60
50356;BME280;36264;51.296;-0.602;2023-04-25T12:10:07;101603.81;;;16.19;48.34
50356;BME280;36264;51.296;-0.602;2023-04-25T12:12:34;101608.41;;;16.14;48.37
50356;BME280;36264;51.296;-0.602;2023-04-25T12:17:51;101610.03;;;16.59;47.45
50356;BME280;36264;51.296;-0.602;2023-04-25T12:20:20;101610.16;;;16.56;48.98
50356;BME280;36264;51.296;-0.602;2023-04-25T12:22:49;101617.16;;;16.56;49.26
50356;BME280;36264;51.296;-0.602;2023-04-25T12:28:23;101620.03;;;16.29;43.18
50356;BME280;36264;51.296;-0.602;2023-04-25T12:31:00;101624.53;;;16.25;47.03
50356;BME280;36264;51.296;-0.602;2023-04-25T12:33:28;101623.34;;;16.12;48.59
50356;BME280;36264;51.296;-0.602;2023-04-25T12:35:54;101619.59;;;16.18;49.25
50356;BME280;36264;51.296;-0.602;2023-04-25T12:38:30;101617.97;;;16.37;45.25
50356;BME280;36264;51.296;-0.602;2023-04-25T12:40:57;101623.31;;;16.34;48.66
50356;BME280;36264;51.296;-0.602;2023-04-25T12:43:22;101616.69;;;16.46;49.17
50356;BME280;36264;51.296;-0.602;2023-04-25T12:45:54;101617.97;;;16.78;48.47
50356;BME280;36264;51.296;-0.602;2023-04-25T12:48:21;101619.56;;;17.22;48.37